sensor_id;sensor_type;location;lat;lon;timestamp;P1;durP1;ratioP1;P2;durP2;ratioP2
17714;SDS011;8977;50.902;4.314;2023-10-31T00:00:44;14.07;;;11.93;;
17714;SDS011;8977;50.902;4.314;2023-10-31T00:03:11;13.60;;;11.50;;
17714;SDS011;8977;50.902;4.314;2023-10-31T00:05:38;16.87;;;12.20;;
17714;SDS011;8977;50.902;4.314;2023-10-31T00:08:05;13.23;;;11.13;;
17714;SDS011;8977;50.902;4.314;2023-10-31T00:10:32;14.57;;;11.30;;
17714;SDS011;8977;50.902;4.314;2023-10-31T00:12:59;15.03;;;10.90;;
17714;SDS011;8977;50.902;4.314;2023-10-31T00:15:27;10.93;;;9.40;;
17714;SDS011;8977;50.902;4.314;2023-10-31T00:17:55;11.83;;;9.93;;
17714;SDS011;8977;50.902;4.314;2023-10-31T00:20:22;13.37;;;8.93;;
17714;SDS011;8977;50.902;4.314;2023-10-31T00:22:49;9.47;;;8.47;;
17714;SDS011;8977;50.902;4.314;2023-10-31T00:25:16;11.73;;;8.67;;
17714;SDS011;8977;50.902;4.314;2023-10-31T00:27:43;10.03;;;7.73;;
17714;SDS011;8977;50.902;4.314;2023-10-31T00:30:10;9.00;;;6.87;;
17714;SDS011;8977;50.902;4.314;2023-10-31T00:32:39;8.23;;;6.83;;
17714;SDS011;8977;50.902;4.314;2023-10-31T00:35:06;10.57;;;6.77;;
17714;SDS011;8977;50.902;4.314;2023-10-31T00:37:33;8.63;;;6.70;;
17714;SDS011;8977;50.902;4.314;2023-10-31T00:40:01;8.10;;;6.50;;
17714;SDS011;8977;50.902;4.314;2023-10-31T00:42:28;6.60;;;5.90;;
17714;SDS011;8977;50.902;4.314;2023-10-31T00:44:55;7.53;;;5.90;;
17714;SDS011;8977;50.902;4.314;2023-10-31T00:47:22;9.47;;;6.20;;
17714;SDS011;8977;50.902;4.314;2023-10-31T00:49:50;9.70;;;6.30;;
17714;SDS011;8977;50.902;4.314;2023-10-31T00:52:18;8.53;;;5.97;;
17714;SDS011;8977;50.902;4.314;2023-10-31T00:54:45;6.30;;;5.53;;
17714;SDS011;8977;50.902;4.314;2023-10-31T00:57:12;5.77;;;5.17;;
17714;SDS011;8977;50.902;4.314;2023-10-31T00:59:39;8.23;;;5.33;;
17714;SDS011;8977;50.902;4.314;2023-10-31T01:02:06;6.73;;;5.40;;
17714;SDS011;8977;50.902;4.314;2023-10-31T01:04:33;7.70;;;5.33;;
17714;SDS011;8977;50.902;4.314;2023-10-31T01:07:03;8.03;;;6.10;;
17714;SDS011;8977;50.902;4.314;2023-10-31T01:09:30;9.23;;;5.17;;
17714;SDS011;8977;50.902;4.314;2023-10-31T01:11:57;6.47;;;5.47;;
17714;SDS011;8977;50.902;4.314;2023-10-31T01:14:24;5.93;;;5.33;;
17714;SDS011;8977;50.902;4.314;2023-10-31T01:16:51;5.73;;;5.23;;
17714;SDS011;8977;50.902;4.314;2023-10-31T01:19:18;6.10;;;5.03;;
17714;SDS011;8977;50.902;4.314;2023-10-31T01:21:45;5.40;;;4.83;;
17714;SDS011;8977;50.902;4.314;2023-10-31T01:24:13;7.43;;;5.37;;
17714;SDS011;8977;50.902;4.314;2023-10-31T01:26:40;7.50;;;5.97;;
17714;SDS011;8977;50.902;4.314;2023-10-31T01:29:07;6.30;;;5.47;;
17714;SDS011;8977;50.902;4.314;2023-10-31T01:31:34;6.07;;;4.83;;
17714;SDS011;8977;50.902;4.314;2023-10-31T01:34:02;9.00;;;5.60;;
17714;SDS011;8977;50.902;4.314;2023-10-31T01:36:29;6.47;;;5.70;;
17714;SDS011;8977;50.902;4.314;2023-10-31T01:38:56;7.37;;;5.50;;
17714;SDS011;8977;50.902;4.314;2023-10-31T01:41:24;6.57;;;5.50;;
17714;SDS011;8977;50.902;4.314;2023-10-31T01:43:52;6.83;;;5.40;;
17714;SDS011;8977;50.902;4.314;2023-10-31T01:46:19;6.03;;;5.33;;
17714;SDS011;8977;50.902;4.314;2023-10-31T01:48:46;7.73;;;5.60;;
17714;SDS011;8977;50.902;4.314;2023-10-31T01:51:13;5.63;;;4.77;;
17714;SDS011;8977;50.902;4.314;2023-10-31T01:53:40;7.17;;;5.63;;
17714;SDS011;8977;50.902;4.314;2023-10-31T01:56:07;6.83;;;5.60;;
17714;SDS011;8977;50.902;4.314;2023-10-31T01:58:36;7.07;;;5.60;;
17714;SDS011;8977;50.902;4.314;2023-10-31T02:01:04;5.77;;;5.27;;
17714;SDS011;8977;50.902;4.314;2023-10-31T02:03:32;6.43;;;5.70;;
17714;SDS011;8977;50.902;4.314;2023-10-31T02:05:59;6.37;;;5.70;;
17714;SDS011;8977;50.902;4.314;2023-10-31T02:08:26;7.63;;;6.23;;
17714;SDS011;8977;50.902;4.314;2023-10-31T02:10:53;7.77;;;6.47;;
17714;SDS011;8977;50.902;4.314;2023-10-31T02:13:20;7.30;;;6.03;;
17714;SDS011;8977;50.902;4.314;2023-10-31T02:15:48;7.13;;;6.43;;
17714;SDS011;8977;50.902;4.314;2023-10-31T02:18:15;8.40;;;6.03;;
17714;SDS011;8977;50.902;4.314;2023-10-31T02:20:42;9.57;;;6.60;;
17714;SDS011;8977;50.902;4.314;2023-10-31T02:23:11;8.53;;;5.80;;
17714;SDS011;8977;50.902;4.314;2023-10-31T02:25:38;8.10;;;6.97;;
17714;SDS011;8977;50.902;4.314;2023-10-31T02:28:05;8.13;;;6.40;;
17714;SDS011;8977;50.902;4.314;2023-10-31T02:30:32;7.77;;;6.97;;
17714;SDS011;8977;50.902;4.314;2023-10-31T02:33:00;7.87;;;7.07;;
17714;SDS011;8977;50.902;4.314;2023-10-31T02:35:27;9.77;;;6.83;;
17714;SDS011;8977;50.902;4.314;2023-10-31T02:37:54;7.90;;;6.97;;
17714;SDS011;8977;50.902;4.314;2023-10-31T02:40:23;8.00;;;6.97;;
17714;SDS011;8977;50.902;4.314;2023-10-31T02:42:50;10.13;;;7.47;;
17714;SDS011;8977;50.902;4.314;2023-10-31T02:45:17;7.80;;;6.93;;
17714;SDS011;8977;50.902;4.314;2023-10-31T02:47:44;8.47;;;7.37;;
17714;SDS011;8977;50.902;4.314;2023-10-31T02:50:13;7.53;;;6.73;;
17714;SDS011;8977;50.902;4.314;2023-10-31T02:52:40;7.40;;;6.70;;
17714;SDS011;8977;50.902;4.314;2023-10-31T02:55:07;10.10;;;7.97;;
17714;SDS011;8977;50.902;4.314;2023-10-31T02:57:35;10.10;;;7.17;;
17714;SDS011;8977;50.902;4.314;2023-10-31T03:00:02;8.10;;;7.10;;
17714;SDS011;8977;50.902;4.314;2023-10-31T03:02:30;7.90;;;7.03;;
17714;SDS011;8977;50.902;4.314;2023-10-31T03:04:57;8.20;;;7.40;;
17714;SDS011;8977;50.902;4.314;2023-10-31T03:07:24;8.63;;;6.70;;
17714;SDS011;8977;50.902;4.314;2023-10-31T03:09:51;7.20;;;6.03;;
17714;SDS011;8977;50.902;4.314;2023-10-31T03:12:19;7.57;;;6.10;;
17714;SDS011;8977;50.902;4.314;2023-10-31T03:14:47;5.53;;;5.03;;
17714;SDS011;8977;50.902;4.314;2023-10-31T03:17:14;6.70;;;5.93;;
17714;SDS011;8977;50.902;4.314;2023-10-31T03:19:41;8.87;;;5.60;;
17714;SDS011;8977;50.902;4.314;2023-10-31T03:22:08;5.43;;;4.83;;
17714;SDS011;8977;50.902;4.314;2023-10-31T03:24:36;6.13;;;5.20;;
17714;SDS011;8977;50.902;4.314;2023-10-31T03:27:02;7.40;;;5.03;;
17714;SDS011;8977;50.902;4.314;2023-10-31T03:29:29;5.60;;;5.10;;
17714;SDS011;8977;50.902;4.314;2023-10-31T03:31:57;5.13;;;4.40;;
17714;SDS011;8977;50.902;4.314;2023-10-31T03:34:24;5.40;;;4.70;;
17714;SDS011;8977;50.902;4.314;2023-10-31T03:36:51;5.23;;;4.43;;
17714;SDS011;8977;50.902;4.314;2023-10-31T03:39:18;5.63;;;4.80;;
17714;SDS011;8977;50.902;4.314;2023-10-31T03:41:45;5.00;;;4.50;;
17714;SDS011;8977;50.902;4.314;2023-10-31T03:44:12;5.93;;;4.40;;
17714;SDS011;8977;50.902;4.314;2023-10-31T03:46:39;5.70;;;4.30;;
17714;SDS011;8977;50.902;4.314;2023-10-31T03:49:08;5.53;;;4.87;;
17714;SDS011;8977;50.902;4.314;2023-10-31T03:51:35;5.00;;;4.53;;
17714;SDS011;8977;50.902;4.314;2023-10-31T03:54:01;4.97;;;4.30;;
17714;SDS011;8977;50.902;4.314;2023-10-31T03:56:29;6.77;;;4.47;;
17714;SDS011;8977;50.902;4.314;2023-10-31T03:58:55;4.97;;;4.43;;
17714;SDS011;8977;50.902;4.314;2023-10-31T04:01:22;5.20;;;3.90;;
17714;SDS011;8977;50.902;4.314;2023-10-31T04:03:49;6.20;;;4.30;;
17714;SDS011;8977;50.902;4.314;2023-10-31T04:06:17;4.83;;;4.37;;
17714;SDS011;8977;50.902;4.314;2023-10-31T04:08:45;5.20;;;4.70;;
17714;SDS011;8977;50.902;4.314;2023-10-31T04:11:11;5.57;;;5.00;;
17714;SDS011;8977;50.902;4.314;2023-10-31T04:13:38;5.67;;;4.77;;
17714;SDS011;8977;50.902;4.314;2023-10-31T04:16:05;5.67;;;5.10;;
17714;SDS011;8977;50.902;4.314;2023-10-31T04:18:33;5.50;;;4.70;;
17714;SDS011;8977;50.902;4.314;2023-10-31T04:21:00;9.97;;;6.60;;
17714;SDS011;8977;50.902;4.314;2023-10-31T04:23:28;6.73;;;5.87;;
17714;SDS011;8977;50.902;4.314;2023-10-31T04:25:55;7.00;;;6.33;;
17714;SDS011;8977;50.902;4.314;2023-10-31T04:28:22;7.33;;;6.60;;
17714;SDS011;8977;50.902;4.314;2023-10-31T04:30:49;8.60;;;7.70;;
17714;SDS011;8977;50.902;4.314;2023-10-31T04:33:16;7.77;;;6.90;;
17714;SDS011;8977;50.902;4.314;2023-10-31T04:35:45;8.07;;;7.27;;
17714;SDS011;8977;50.902;4.314;2023-10-31T04:38:11;10.07;;;8.07;;
17714;SDS011;8977;50.902;4.314;2023-10-31T04:40:40;8.63;;;7.83;;
17714;SDS011;8977;50.902;4.314;2023-10-31T04:43:07;9.83;;;8.33;;
17714;SDS011;8977;50.902;4.314;2023-10-31T04:45:34;8.83;;;7.90;;
17714;SDS011;8977;50.902;4.314;2023-10-31T04:48:01;9.73;;;8.73;;
17714;SDS011;8977;50.902;4.314;2023-10-31T04:50:28;9.43;;;7.90;;
17714;SDS011;8977;50.902;4.314;2023-10-31T04:52:55;10.13;;;9.07;;
17714;SDS011;8977;50.902;4.314;2023-10-31T04:55:22;9.20;;;8.30;;
17714;SDS011;8977;50.902;4.314;2023-10-31T04:57:51;9.43;;;8.43;;
17714;SDS011;8977;50.902;4.314;2023-10-31T05:00:19;9.63;;;8.60;;
17714;SDS011;8977;50.902;4.314;2023-10-31T05:02:46;9.17;;;8.27;;
17714;SDS011;8977;50.902;4.314;2023-10-31T05:05:14;11.63;;;8.97;;
17714;SDS011;8977;50.902;4.314;2023-10-31T05:07:41;9.90;;;8.97;;
17714;SDS011;8977;50.902;4.314;2023-10-31T05:10:08;10.70;;;9.60;;
17714;SDS011;8977;50.902;4.314;2023-10-31T05:12:35;11.33;;;9.87;;
17714;SDS011;8977;50.902;4.314;2023-10-31T05:15:04;11.03;;;9.90;;
17714;SDS011;8977;50.902;4.314;2023-10-31T05:17:32;12.07;;;9.80;;
17714;SDS011;8977;50.902;4.314;2023-10-31T05:19:59;11.67;;;10.27;;
17714;SDS011;8977;50.902;4.314;2023-10-31T05:22:26;10.93;;;9.83;;
17714;SDS011;8977;50.902;4.314;2023-10-31T05:24:53;11.90;;;10.67;;
17714;SDS011;8977;50.902;4.314;2023-10-31T05:27:20;12.63;;;10.40;;
17714;SDS011;8977;50.902;4.314;2023-10-31T05:29:47;11.13;;;10.07;;
17714;SDS011;8977;50.902;4.314;2023-10-31T05:32:15;11.47;;;10.20;;
17714;SDS011;8977;50.902;4.314;2023-10-31T05:34:42;12.00;;;10.10;;
17714;SDS011;8977;50.902;4.314;2023-10-31T05:37:09;11.23;;;9.53;;
17714;SDS011;8977;50.902;4.314;2023-10-31T05:39:35;10.23;;;9.20;;
17714;SDS011;8977;50.902;4.314;2023-10-31T05:42:02;11.47;;;9.63;;
17714;SDS011;8977;50.902;4.314;2023-10-31T05:44:30;11.93;;;9.33;;
17714;SDS011;8977;50.902;4.314;2023-10-31T05:46:56;10.70;;;9.27;;
17714;SDS011;8977;50.902;4.314;2023-10-31T05:49:25;11.63;;;9.70;;
17714;SDS011;8977;50.902;4.314;2023-10-31T05:51:52;11.00;;;9.57;;
17714;SDS011;8977;50.902;4.314;2023-10-31T05:54:19;10.53;;;8.80;;
17714;SDS011;8977;50.902;4.314;2023-10-31T05:56:46;11.37;;;10.17;;
17714;SDS011;8977;50.902;4.314;2023-10-31T05:59:13;11.97;;;10.50;;
17714;SDS011;8977;50.902;4.314;2023-10-31T06:01:40;12.50;;;10.50;;
17714;SDS011;8977;50.902;4.314;2023-10-31T06:04:07;12.03;;;10.40;;
17714;SDS011;8977;50.902;4.314;2023-10-31T06:06:36;12.13;;;10.83;;
17714;SDS011;8977;50.902;4.314;2023-10-31T06:09:04;11.33;;;10.23;;
17714;SDS011;8977;50.902;4.314;2023-10-31T06:11:31;11.13;;;9.93;;
17714;SDS011;8977;50.902;4.314;2023-10-31T06:13:58;11.63;;;10.43;;
17714;SDS011;8977;50.902;4.314;2023-10-31T06:16:25;12.53;;;10.53;;
17714;SDS011;8977;50.902;4.314;2023-10-31T06:18:52;12.67;;;10.17;;
17714;SDS011;8977;50.902;4.314;2023-10-31T06:21:19;12.97;;;10.27;;
17714;SDS011;8977;50.902;4.314;2023-10-31T06:23:47;11.53;;;9.97;;
17714;SDS011;8977;50.902;4.314;2023-10-31T06:26:14;13.23;;;9.87;;
17714;SDS011;8977;50.902;4.314;2023-10-31T06:28:41;12.03;;;9.83;;
17714;SDS011;8977;50.902;4.314;2023-10-31T06:31:08;11.43;;;10.30;;
17714;SDS011;8977;50.902;4.314;2023-10-31T06:33:35;12.63;;;10.50;;
17714;SDS011;8977;50.902;4.314;2023-10-31T06:36:02;13.00;;;10.03;;
17714;SDS011;8977;50.902;4.314;2023-10-31T06:38:30;10.50;;;9.43;;
17714;SDS011;8977;50.902;4.314;2023-10-31T06:40:58;10.63;;;9.30;;
17714;SDS011;8977;50.902;4.314;2023-10-31T06:43:25;12.93;;;9.30;;
17714;SDS011;8977;50.902;4.314;2023-10-31T06:45:52;10.57;;;9.07;;
17714;SDS011;8977;50.902;4.314;2023-10-31T06:48:19;10.90;;;8.70;;
17714;SDS011;8977;50.902;4.314;2023-10-31T06:50:46;10.43;;;9.10;;
17714;SDS011;8977;50.902;4.314;2023-10-31T06:53:13;10.97;;;9.80;;
17714;SDS011;8977;50.902;4.314;2023-10-31T06:55:40;11.43;;;8.57;;
17714;SDS011;8977;50.902;4.314;2023-10-31T06:58:08;10.67;;;9.27;;
17714;SDS011;8977;50.902;4.314;2023-10-31T07:00:35;11.23;;;9.20;;
17714;SDS011;8977;50.902;4.314;2023-10-31T07:03:02;10.63;;;8.60;;
17714;SDS011;8977;50.902;4.314;2023-10-31T07:05:34;10.90;;;8.97;;
17714;SDS011;8977;50.902;4.314;2023-10-31T07:08:00;11.17;;;9.13;;
17714;SDS011;8977;50.902;4.314;2023-10-31T07:10:28;10.17;;;9.07;;
17714;SDS011;8977;50.902;4.314;2023-10-31T07:12:55;12.67;;;9.10;;
17714;SDS011;8977;50.902;4.314;2023-10-31T07:15:25;10.17;;;8.80;;
17714;SDS011;8977;50.902;4.314;2023-10-31T07:17:53;13.43;;;8.60;;
17714;SDS011;8977;50.902;4.314;2023-10-31T07:20:20;10.57;;;8.47;;
17714;SDS011;8977;50.902;4.314;2023-10-31T07:22:47;9.57;;;8.23;;
17714;SDS011;8977;50.902;4.314;2023-10-31T07:25:14;10.90;;;8.13;;
17714;SDS011;8977;50.902;4.314;2023-10-31T07:27:40;10.30;;;8.27;;
17714;SDS011;8977;50.902;4.314;2023-10-31T07:30:07;9.13;;;7.83;;
17714;SDS011;8977;50.902;4.314;2023-10-31T07:32:36;9.07;;;7.77;;
17714;SDS011;8977;50.902;4.314;2023-10-31T07:35:04;10.90;;;7.33;;
17714;SDS011;8977;50.902;4.314;2023-10-31T07:37:31;9.80;;;7.37;;
17714;SDS011;8977;50.902;4.314;2023-10-31T07:39:58;8.53;;;7.50;;
17714;SDS011;8977;50.902;4.314;2023-10-31T07:42:25;8.30;;;7.50;;
17714;SDS011;8977;50.902;4.314;2023-10-31T07:44:52;10.77;;;7.50;;
17714;SDS011;8977;50.902;4.314;2023-10-31T07:47:19;9.33;;;7.97;;
17714;SDS011;8977;50.902;4.314;2023-10-31T07:49:47;8.40;;;6.97;;
17714;SDS011;8977;50.902;4.314;2023-10-31T07:52:14;7.90;;;7.10;;
17714;SDS011;8977;50.902;4.314;2023-10-31T07:54:41;7.80;;;7.00;;
17714;SDS011;8977;50.902;4.314;2023-10-31T07:57:08;7.60;;;6.67;;
17714;SDS011;8977;50.902;4.314;2023-10-31T07:59:36;7.17;;;6.37;;
17714;SDS011;8977;50.902;4.314;2023-10-31T08:02:02;8.83;;;6.00;;
17714;SDS011;8977;50.902;4.314;2023-10-31T08:04:30;6.97;;;5.17;;
17714;SDS011;8977;50.902;4.314;2023-10-31T08:06:58;6.20;;;5.03;;
17714;SDS011;8977;50.902;4.314;2023-10-31T08:09:25;6.37;;;4.13;;
17714;SDS011;8977;50.902;4.314;2023-10-31T08:11:52;7.50;;;4.90;;
17714;SDS011;8977;50.902;4.314;2023-10-31T08:14:19;6.07;;;4.30;;
17714;SDS011;8977;50.902;4.314;2023-10-31T08:16:48;6.53;;;4.53;;
17714;SDS011;8977;50.902;4.314;2023-10-31T08:19:15;9.17;;;5.13;;
17714;SDS011;8977;50.902;4.314;2023-10-31T08:21:41;5.50;;;4.97;;
17714;SDS011;8977;50.902;4.314;2023-10-31T08:24:10;4.83;;;4.43;;
17714;SDS011;8977;50.902;4.314;2023-10-31T08:26:38;4.67;;;4.23;;
17714;SDS011;8977;50.902;4.314;2023-10-31T08:29:05;6.17;;;4.50;;
17714;SDS011;8977;50.902;4.314;2023-10-31T08:31:32;5.53;;;4.80;;
17714;SDS011;8977;50.902;4.314;2023-10-31T08:33:59;5.93;;;4.77;;
17714;SDS011;8977;50.902;4.314;2023-10-31T08:36:26;4.53;;;4.13;;
17714;SDS011;8977;50.902;4.314;2023-10-31T08:38:53;6.10;;;4.40;;
17714;SDS011;8977;50.902;4.314;2023-10-31T08:41:21;6.53;;;3.80;;
17714;SDS011;8977;50.902;4.314;2023-10-31T08:43:48;5.50;;;4.70;;
17714;SDS011;8977;50.902;4.314;2023-10-31T08:46:15;6.33;;;4.00;;
17714;SDS011;8977;50.902;4.314;2023-10-31T08:48:42;5.93;;;4.27;;
17714;SDS011;8977;50.902;4.314;2023-10-31T08:51:10;3.70;;;3.37;;
17714;SDS011;8977;50.902;4.314;2023-10-31T08:53:36;6.50;;;3.70;;
17714;SDS011;8977;50.902;4.314;2023-10-31T08:56:03;6.57;;;4.03;;
17714;SDS011;8977;50.902;4.314;2023-10-31T08:58:32;5.07;;;4.13;;
17714;SDS011;8977;50.902;4.314;2023-10-31T09:00:59;6.67;;;3.80;;
17714;SDS011;8977;50.902;4.314;2023-10-31T09:03:26;5.57;;;3.43;;
17714;SDS011;8977;50.902;4.314;2023-10-31T09:05:52;7.00;;;3.90;;
17714;SDS011;8977;50.902;4.314;2023-10-31T09:08:19;4.57;;;3.50;;
17714;SDS011;8977;50.902;4.314;2023-10-31T09:10:46;6.20;;;3.70;;
17714;SDS011;8977;50.902;4.314;2023-10-31T09:13:13;7.00;;;4.13;;
17714;SDS011;8977;50.902;4.314;2023-10-31T09:15:42;7.03;;;3.40;;
17714;SDS011;8977;50.902;4.314;2023-10-31T09:18:10;7.10;;;3.80;;
17714;SDS011;8977;50.902;4.314;2023-10-31T09:20:38;6.37;;;3.83;;
17714;SDS011;8977;50.902;4.314;2023-10-31T09:23:04;6.57;;;3.30;;
17714;SDS011;8977;50.902;4.314;2023-10-31T09:25:31;7.07;;;3.40;;
17714;SDS011;8977;50.902;4.314;2023-10-31T09:27:58;5.83;;;3.80;;
17714;SDS011;8977;50.902;4.314;2023-10-31T09:30:25;6.50;;;3.30;;
17714;SDS011;8977;50.902;4.314;2023-10-31T09:32:53;6.73;;;4.10;;
17714;SDS011;8977;50.902;4.314;2023-10-31T09:35:20;5.47;;;3.50;;
17714;SDS011;8977;50.902;4.314;2023-10-31T09:37:47;6.90;;;3.53;;
17714;SDS011;8977;50.902;4.314;2023-10-31T09:40:14;5.50;;;3.60;;
17714;SDS011;8977;50.902;4.314;2023-10-31T09:42:41;5.30;;;3.43;;
17714;SDS011;8977;50.902;4.314;2023-10-31T09:45:10;5.33;;;3.23;;
17714;SDS011;8977;50.902;4.314;2023-10-31T09:47:36;6.50;;;4.27;;
17714;SDS011;8977;50.902;4.314;2023-10-31T09:50:05;6.03;;;4.27;;
17714;SDS011;8977;50.902;4.314;2023-10-31T09:52:34;7.07;;;4.20;;
17714;SDS011;8977;50.902;4.314;2023-10-31T09:55:02;6.63;;;4.50;;
17714;SDS011;8977;50.902;4.314;2023-10-31T09:57:30;9.80;;;5.00;;
17714;SDS011;8977;50.902;4.314;2023-10-31T09:59:57;6.63;;;4.97;;
17714;SDS011;8977;50.902;4.314;2023-10-31T10:02:24;5.93;;;4.77;;
17714;SDS011;8977;50.902;4.314;2023-10-31T10:04:51;7.20;;;4.33;;
17714;SDS011;8977;50.902;4.314;2023-10-31T10:07:20;6.87;;;4.13;;
17714;SDS011;8977;50.902;4.314;2023-10-31T10:09:46;8.23;;;4.80;;
17714;SDS011;8977;50.902;4.314;2023-10-31T10:12:13;6.37;;;4.30;;
17714;SDS011;8977;50.902;4.314;2023-10-31T10:14:42;9.00;;;5.13;;
17714;SDS011;8977;50.902;4.314;2023-10-31T10:17:14;8.17;;;4.60;;
17714;SDS011;8977;50.902;4.314;2023-10-31T10:19:42;6.10;;;4.47;;
17714;SDS011;8977;50.902;4.314;2023-10-31T10:22:09;7.87;;;4.73;;
17714;SDS011;8977;50.902;4.314;2023-10-31T10:24:40;6.53;;;4.13;;
17714;SDS011;8977;50.902;4.314;2023-10-31T10:27:07;9.60;;;4.93;;
17714;SDS011;8977;50.902;4.314;2023-10-31T10:29:35;8.20;;;4.23;;
17714;SDS011;8977;50.902;4.314;2023-10-31T10:32:04;9.63;;;4.80;;
17714;SDS011;8977;50.902;4.314;2023-10-31T10:34:34;11.03;;;4.97;;
17714;SDS011;8977;50.902;4.314;2023-10-31T10:37:01;7.43;;;4.80;;
17714;SDS011;8977;50.902;4.314;2023-10-31T10:39:31;8.50;;;4.50;;
17714;SDS011;8977;50.902;4.314;2023-10-31T10:42:01;6.00;;;4.30;;
17714;SDS011;8977;50.902;4.314;2023-10-31T10:44:33;7.03;;;4.10;;
17714;SDS011;8977;50.902;4.314;2023-10-31T10:47:04;7.83;;;4.47;;
17714;SDS011;8977;50.902;4.314;2023-10-31T10:49:33;8.63;;;4.30;;
17714;SDS011;8977;50.902;4.314;2023-10-31T10:52:01;8.93;;;4.30;;
17714;SDS011;8977;50.902;4.314;2023-10-31T10:54:40;6.57;;;4.07;;
17714;SDS011;8977;50.902;4.314;2023-10-31T10:57:14;6.07;;;4.07;;
17714;SDS011;8977;50.902;4.314;2023-10-31T10:59:47;7.97;;;4.37;;
17714;SDS011;8977;50.902;4.314;2023-10-31T11:02:16;6.87;;;4.70;;
17714;SDS011;8977;50.902;4.314;2023-10-31T11:04:45;6.53;;;4.27;;
17714;SDS011;8977;50.902;4.314;2023-10-31T11:07:13;5.90;;;4.20;;
17714;SDS011;8977;50.902;4.314;2023-10-31T11:09:41;7.10;;;4.37;;
17714;SDS011;8977;50.902;4.314;2023-10-31T11:12:09;8.60;;;4.57;;
17714;SDS011;8977;50.902;4.314;2023-10-31T11:14:39;7.50;;;4.73;;
17714;SDS011;8977;50.902;4.314;2023-10-31T11:17:09;7.17;;;5.07;;
17714;SDS011;8977;50.902;4.314;2023-10-31T11:19:42;11.00;;;5.80;;
17714;SDS011;8977;50.902;4.314;2023-10-31T11:22:09;8.23;;;5.67;;
17714;SDS011;8977;50.902;4.314;2023-10-31T11:24:37;6.13;;;5.27;;
17714;SDS011;8977;50.902;4.314;2023-10-31T11:27:05;9.57;;;6.00;;
17714;SDS011;8977;50.902;4.314;2023-10-31T11:29:33;8.30;;;5.20;;
17714;SDS011;8977;50.902;4.314;2023-10-31T11:32:02;7.53;;;5.90;;
17714;SDS011;8977;50.902;4.314;2023-10-31T11:34:30;9.73;;;6.37;;
17714;SDS011;8977;50.902;4.314;2023-10-31T11:42:42;8.00;;;5.90;;
17714;SDS011;8977;50.902;4.314;2023-10-31T11:45:10;8.53;;;5.87;;
17714;SDS011;8977;50.902;4.314;2023-10-31T11:47:48;10.87;;;5.70;;
17714;SDS011;8977;50.902;4.314;2023-10-31T11:50:16;10.87;;;5.97;;
17714;SDS011;8977;50.902;4.314;2023-10-31T11:52:43;12.17;;;6.33;;
17714;SDS011;8977;50.902;4.314;2023-10-31T11:55:11;6.40;;;5.77;;
17714;SDS011;8977;50.902;4.314;2023-10-31T11:57:41;7.57;;;5.57;;
17714;SDS011;8977;50.902;4.314;2023-10-31T12:00:11;8.60;;;5.87;;
17714;SDS011;8977;50.902;4.314;2023-10-31T12:02:57;7.50;;;5.07;;
17714;SDS011;8977;50.902;4.314;2023-10-31T12:05:25;7.40;;;4.77;;
17714;SDS011;8977;50.902;4.314;2023-10-31T12:07:52;5.77;;;4.60;;
17714;SDS011;8977;50.902;4.314;2023-10-31T12:10:23;6.87;;;4.43;;
17714;SDS011;8977;50.902;4.314;2023-10-31T12:12:52;8.53;;;5.37;;
17714;SDS011;8977;50.902;4.314;2023-10-31T12:15:19;6.17;;;4.90;;
17714;SDS011;8977;50.902;4.314;2023-10-31T12:17:46;7.50;;;4.80;;
17714;SDS011;8977;50.902;4.314;2023-10-31T12:20:14;7.47;;;4.73;;
17714;SDS011;8977;50.902;4.314;2023-10-31T12:22:42;9.93;;;5.80;;
17714;SDS011;8977;50.902;4.314;2023-10-31T12:25:09;8.63;;;5.87;;
17714;SDS011;8977;50.902;4.314;2023-10-31T12:27:43;9.23;;;5.60;;
17714;SDS011;8977;50.902;4.314;2023-10-31T12:30:11;8.30;;;5.87;;
17714;SDS011;8977;50.902;4.314;2023-10-31T12:32:40;6.67;;;5.00;;
17714;SDS011;8977;50.902;4.314;2023-10-31T12:35:08;8.47;;;5.37;;
17714;SDS011;8977;50.902;4.314;2023-10-31T12:37:41;10.73;;;5.23;;
17714;SDS011;8977;50.902;4.314;2023-10-31T12:40:11;7.27;;;5.20;;
17714;SDS011;8977;50.902;4.314;2023-10-31T12:42:40;7.30;;;5.10;;
17714;SDS011;8977;50.902;4.314;2023-10-31T12:45:08;8.20;;;5.40;;
17714;SDS011;8977;50.902;4.314;2023-10-31T12:47:35;7.33;;;5.33;;
17714;SDS011;8977;50.902;4.314;2023-10-31T12:50:06;7.50;;;5.13;;
17714;SDS011;8977;50.902;4.314;2023-10-31T12:52:48;7.83;;;5.73;;
17714;SDS011;8977;50.902;4.314;2023-10-31T12:55:17;7.60;;;5.70;;
17714;SDS011;8977;50.902;4.314;2023-10-31T12:57:46;7.53;;;6.07;;
17714;SDS011;8977;50.902;4.314;2023-10-31T13:00:14;7.80;;;5.60;;
17714;SDS011;8977;50.902;4.314;2023-10-31T13:02:49;7.80;;;5.70;;
17714;SDS011;8977;50.902;4.314;2023-10-31T13:05:16;8.70;;;6.40;;
17714;SDS011;8977;50.902;4.314;2023-10-31T13:07:49;9.23;;;6.67;;
17714;SDS011;8977;50.902;4.314;2023-10-31T13:10:16;8.97;;;6.67;;
17714;SDS011;8977;50.902;4.314;2023-10-31T13:12:43;9.07;;;6.27;;
17714;SDS011;8977;50.902;4.314;2023-10-31T13:15:12;7.37;;;5.80;;
17714;SDS011;8977;50.902;4.314;2023-10-31T13:17:39;7.20;;;6.20;;
17714;SDS011;8977;50.902;4.314;2023-10-31T13:20:08;9.17;;;5.67;;
17714;SDS011;8977;50.902;4.314;2023-10-31T13:22:36;6.93;;;5.57;;
17714;SDS011;8977;50.902;4.314;2023-10-31T13:25:05;6.70;;;5.80;;
17714;SDS011;8977;50.902;4.314;2023-10-31T13:27:35;6.67;;;5.23;;
17714;SDS011;8977;50.902;4.314;2023-10-31T13:30:02;6.47;;;4.70;;
17714;SDS011;8977;50.902;4.314;2023-10-31T13:32:29;5.57;;;4.63;;
17714;SDS011;8977;50.902;4.314;2023-10-31T13:34:57;7.37;;;3.67;;
17714;SDS011;8977;50.902;4.314;2023-10-31T13:37:24;6.40;;;4.33;;
17714;SDS011;8977;50.902;4.314;2023-10-31T13:39:51;6.17;;;3.87;;
17714;SDS011;8977;50.902;4.314;2023-10-31T13:42:19;7.43;;;3.97;;
17714;SDS011;8977;50.902;4.314;2023-10-31T13:44:47;5.30;;;3.40;;
17714;SDS011;8977;50.902;4.314;2023-10-31T13:47:14;7.80;;;4.00;;
17714;SDS011;8977;50.902;4.314;2023-10-31T13:49:41;6.83;;;4.03;;
17714;SDS011;8977;50.902;4.314;2023-10-31T13:52:08;6.90;;;3.73;;
17714;SDS011;8977;50.902;4.314;2023-10-31T13:54:35;5.93;;;3.40;;
17714;SDS011;8977;50.902;4.314;2023-10-31T13:57:03;4.27;;;3.57;;
17714;SDS011;8977;50.902;4.314;2023-10-31T13:59:31;5.93;;;3.27;;
17714;SDS011;8977;50.902;4.314;2023-10-31T14:01:58;6.10;;;3.30;;
17714;SDS011;8977;50.902;4.314;2023-10-31T14:04:25;5.77;;;3.63;;
17714;SDS011;8977;50.902;4.314;2023-10-31T14:06:54;4.17;;;3.53;;
17714;SDS011;8977;50.902;4.314;2023-10-31T14:09:21;4.43;;;3.90;;
17714;SDS011;8977;50.902;4.314;2023-10-31T14:11:48;8.83;;;3.73;;
17714;SDS011;8977;50.902;4.314;2023-10-31T14:14:15;5.80;;;3.13;;
17714;SDS011;8977;50.902;4.314;2023-10-31T14:16:43;4.63;;;3.40;;
17714;SDS011;8977;50.902;4.314;2023-10-31T14:19:11;4.20;;;3.10;;
17714;SDS011;8977;50.902;4.314;2023-10-31T14:21:38;5.30;;;3.30;;
17714;SDS011;8977;50.902;4.314;2023-10-31T14:24:05;4.10;;;3.23;;
17714;SDS011;8977;50.902;4.314;2023-10-31T14:26:33;6.30;;;3.80;;
17714;SDS011;8977;50.902;4.314;2023-10-31T14:29:01;5.20;;;3.60;;
17714;SDS011;8977;50.902;4.314;2023-10-31T14:31:28;7.33;;;3.77;;
17714;SDS011;8977;50.902;4.314;2023-10-31T14:33:56;6.20;;;3.13;;
17714;SDS011;8977;50.902;4.314;2023-10-31T14:36:24;4.20;;;2.80;;
17714;SDS011;8977;50.902;4.314;2023-10-31T14:38:51;6.40;;;3.50;;
17714;SDS011;8977;50.902;4.314;2023-10-31T14:41:18;7.67;;;3.07;;
17714;SDS011;8977;50.902;4.314;2023-10-31T14:43:45;4.13;;;3.00;;
17714;SDS011;8977;50.902;4.314;2023-10-31T14:46:12;6.87;;;3.33;;
17714;SDS011;8977;50.902;4.314;2023-10-31T14:48:39;9.90;;;3.47;;
17714;SDS011;8977;50.902;4.314;2023-10-31T14:51:07;6.77;;;3.27;;
17714;SDS011;8977;50.902;4.314;2023-10-31T14:53:34;5.80;;;3.23;;
17714;SDS011;8977;50.902;4.314;2023-10-31T14:56:01;5.70;;;3.40;;
17714;SDS011;8977;50.902;4.314;2023-10-31T14:58:28;5.97;;;3.47;;
17714;SDS011;8977;50.902;4.314;2023-10-31T15:00:55;4.40;;;3.23;;
17714;SDS011;8977;50.902;4.314;2023-10-31T15:03:22;7.17;;;3.53;;
17714;SDS011;8977;50.902;4.314;2023-10-31T15:05:49;4.13;;;3.23;;